createdAt,value
2019-02-26T00:00:04.817Z,6.49
2019-02-26T00:01:26.166Z,6.45
2019-02-26T00:02:38.703Z,6.41
2019-02-26T00:03:52.046Z,6.39
2019-02-26T00:05:05.904Z,6.46
2019-02-26T00:06:20.552Z,6.48
2019-02-26T00:07:37.135Z,6.42
2019-02-26T00:08:53.628Z,6.42
2019-02-26T00:10:10.310Z,6.45
2019-02-26T00:11:24.319Z,6.45
2019-02-26T00:12:41.038Z,6.45
2019-02-26T00:13:56.739Z,6.42
2019-02-26T00:15:07.692Z,6.39
2019-02-26T00:16:22.888Z,6.41
2019-02-26T00:17:36.051Z,6.45
2019-02-26T00:18:53.319Z,6.44
2019-02-26T00:20:15.632Z,6.48
2019-02-26T00:21:31.662Z,6.53
2019-02-26T00:22:43.830Z,6.49
2019-02-26T00:23:55.730Z,6.48
2019-02-26T00:25:13.283Z,6.59
2019-02-26T00:26:27.913Z,6.52
2019-02-26T00:27:41.177Z,6.62
2019-02-26T00:28:54.391Z,6.57
2019-02-26T00:30:13.562Z,6.63
2019-02-26T00:31:31.123Z,6.56
2019-02-26T00:32:43.150Z,6.57
2019-02-26T00:33:53.287Z,6.52
2019-02-26T00:35:06.748Z,6.54
2019-02-26T00:36:18.553Z,6.52
2019-02-26T00:37:31.381Z,6.49
2019-02-26T00:38:45.194Z,6.48
2019-02-26T00:39:58.826Z,6.46
2019-02-26T00:41:10.922Z,6.28
2019-02-26T00:42:29.324Z,6.38
2019-02-26T00:43:43.371Z,6.31
2019-02-26T00:45:05.709Z,6.28
2019-02-26T00:46:17.838Z,6.24
2019-02-26T00:47:38.777Z,6.24
2019-02-26T00:48:56.262Z,6.27
2019-02-26T00:50:17.132Z,6.31
2019-02-26T00:51:29.413Z,6.3
2019-02-26T00:52:41.673Z,6.34
2019-02-26T00:53:57.967Z,6.3
2019-02-26T00:55:12.448Z,6.31
2019-02-26T00:56:29.363Z,6.31
2019-02-26T00:57:45.924Z,6.26
2019-02-26T00:58:56.017Z,6.2
2019-02-26T01:00:12.158Z,6.19
2019-02-26T01:01:26.241Z,6.2
2019-02-26T01:02:36.337Z,6.16
2019-02-26T01:03:51.933Z,6.2
2019-02-26T01:05:03.918Z,6.2
2019-02-26T01:06:18.396Z,6.06
2019-02-26T01:07:33.435Z,6.06
2019-02-26T01:08:47.643Z,6.03
2019-02-26T01:10:01.589Z,6.06
2019-02-26T01:11:13.242Z,6.08
2019-02-26T01:12:26.520Z,6.06
2019-02-26T01:13:41.048Z,6.06
2019-02-26T01:14:52.953Z,6.06
2019-02-26T01:16:03.061Z,6.06
2019-02-26T01:17:18.960Z,6.03
2019-02-26T01:18:31.419Z,6.02
2019-02-26T01:19:45.434Z,6.02
2019-02-26T01:21:02.386Z,5.98
2019-02-26T01:22:14.052Z,5.94
2019-02-26T01:23:29.195Z,5.99
2019-02-26T01:24:39.283Z,5.99
2019-02-26T01:25:49.387Z,6.03
2019-02-26T01:27:02.024Z,5.93
2019-02-26T01:28:14.044Z,5.96
2019-02-26T01:29:34.734Z,5.93
2019-02-26T01:30:44.604Z,5.91
2019-02-26T01:32:04.642Z,5.94
2019-02-26T01:33:22.282Z,5.9
2019-02-26T01:34:42.665Z,5.86
2019-02-26T01:36:02.466Z,5.96
2019-02-26T01:37:14.815Z,5.88
2019-02-26T01:38:26.778Z,5.93
2019-02-26T01:39:42.465Z,5.96
2019-02-26T01:40:59.146Z,5.91
2019-02-26T01:42:10.665Z,5.79
2019-02-26T01:43:29.946Z,5.74
2019-02-26T01:44:44.637Z,5.74
2019-02-26T01:45:57.849Z,5.86
2019-02-26T01:47:09.621Z,5.84
2019-02-26T01:48:22.930Z,5.82
2019-02-26T01:49:33.510Z,5.83
2019-02-26T01:50:46.828Z,5.8
2019-02-26T01:51:59.347Z,5.86
2019-02-26T01:53:16.908Z,5.77
2019-02-26T01:54:33.358Z,5.74
2019-02-26T01:55:52.565Z,5.72
2019-02-26T01:57:02.668Z,5.71
2019-02-26T01:58:20.843Z,5.74
2019-02-26T01:59:31.689Z,5.69
2019-02-26T02:00:46.130Z,5.71
2019-02-26T02:01:58.532Z,5.72
2019-02-26T02:03:08.675Z,5.83
2019-02-26T02:04:22.027Z,5.75
2019-02-26T02:05:34.512Z,5.8
2019-02-26T02:06:46.273Z,5.74
2019-02-26T02:07:58.554Z,5.72
2019-02-26T02:09:15.752Z,5.84
2019-02-26T02:10:30.478Z,5.77
2019-02-26T02:11:43.216Z,5.75
2019-02-26T02:12:55.162Z,5.75
2019-02-26T02:14:17.137Z,5.77
2019-02-26T02:15:28.711Z,5.88
2019-02-26T02:16:41.067Z,5.93
2019-02-26T02:17:51.162Z,5.93
2019-02-26T02:19:06.661Z,5.84
2019-02-26T02:20:25.692Z,6.06
2019-02-26T02:21:38.129Z,5.93
2019-02-26T02:22:49.371Z,5.9
2019-02-26T02:24:01.369Z,5.9
2019-02-26T02:25:20.027Z,5.79
2019-02-26T02:26:30.127Z,5.93
2019-02-26T02:27:40.424Z,5.79
2019-02-26T02:28:52.948Z,5.75
2019-02-26T02:30:03.050Z,5.69
2019-02-26T02:31:21.910Z,5.72
2019-02-26T02:32:39.585Z,5.68
2019-02-26T02:33:55.708Z,5.67
2019-02-26T02:35:12.537Z,5.77
2019-02-26T02:36:29.183Z,5.75
2019-02-26T02:37:39.333Z,5.72
2019-02-26T02:38:49.431Z,5.77
2019-02-26T02:39:59.548Z,5.86
2019-02-26T02:41:09.645Z,5.77
2019-02-26T02:42:24.518Z,5.91
2019-02-26T02:43:34.626Z,5.75
2019-02-26T02:44:52.746Z,5.93
2019-02-26T02:46:03.979Z,5.98
2019-02-26T02:47:16.182Z,5.99
2019-02-26T02:48:26.294Z,6.03
2019-02-26T02:49:42.350Z,6.03
2019-02-26T02:50:53.911Z,5.93
2019-02-26T02:52:12.087Z,5.98
2019-02-26T02:53:30.118Z,5.96
2019-02-26T02:54:49.395Z,5.96
2019-02-26T02:55:59.660Z,5.96
2019-02-26T02:57:15.331Z,5.98
2019-02-26T02:58:30.992Z,6.03
2019-02-26T02:59:44.739Z,5.9
2019-02-26T03:01:00.386Z,5.9
2019-02-26T03:02:14.978Z,5.77
2019-02-26T03:03:30.557Z,5.86
2019-02-26T03:04:40.417Z,5.88
2019-02-26T03:05:50.813Z,5.93
2019-02-26T03:07:03.584Z,5.83
2019-02-26T03:08:22.295Z,5.77
2019-02-26T03:09:35.305Z,5.71
2019-02-26T03:10:51.204Z,5.67
2019-02-26T03:12:01.319Z,5.65
2019-02-26T03:13:11.451Z,5.67
2019-02-26T03:14:26.454Z,5.71
2019-02-26T03:15:44.216Z,5.68
2019-02-26T03:17:00.664Z,5.71
2019-02-26T03:18:19.356Z,5.67
2019-02-26T03:19:30.318Z,5.69
2019-02-26T03:20:46.882Z,5.64
2019-02-26T03:22:01.914Z,5.68
2019-02-26T03:23:21.878Z,5.59
2019-02-26T03:24:38.189Z,5.56
2019-02-26T03:25:54.875Z,5.59
2019-02-26T03:27:04.795Z,5.43
2019-02-26T03:28:14.895Z,5.43
2019-02-26T03:29:25.000Z,5.43
2019-02-26T03:30:46.658Z,5.41
2019-02-26T03:32:00.330Z,5.36
2019-02-26T03:33:10.468Z,5.32
2019-02-26T03:34:29.185Z,5.29
2019-02-26T03:35:39.311Z,5.36
2019-02-26T03:36:50.422Z,5.25
2019-02-26T03:38:06.076Z,5.28
2019-02-26T03:39:16.182Z,5.26
2019-02-26T03:40:32.931Z,5.26
2019-02-26T03:41:48.402Z,5.16
2019-02-26T03:43:05.212Z,5.16
2019-02-26T03:44:21.659Z,5.13
2019-02-26T03:45:35.642Z,5.11
2019-02-26T03:46:45.749Z,5.08
2019-02-26T03:47:58.653Z,5.17
2019-02-26T03:49:08.793Z,5.1
2019-02-26T03:50:18.909Z,5.17
2019-02-26T03:51:31.829Z,5.21
2019-02-26T03:52:46.969Z,5.22
2019-02-26T03:53:57.153Z,5.22
2019-02-26T03:55:14.098Z,5.24
2019-02-26T03:56:26.887Z,5.22
2019-02-26T03:57:40.901Z,5.1
2019-02-26T03:59:06.148Z,5
2019-02-26T04:00:22.568Z,5.03
2019-02-26T04:01:32.801Z,4.96
2019-02-26T04:02:51.457Z,4.95
2019-02-26T04:04:07.667Z,4.92
2019-02-26T04:05:17.889Z,4.92
2019-02-26T04:06:27.997Z,4.86
2019-02-26T04:07:43.706Z,4.81
2019-02-26T04:09:00.979Z,4.8
2019-02-26T04:10:11.086Z,4.78
2019-02-26T04:11:27.788Z,4.74
2019-02-26T04:12:44.983Z,4.71
2019-02-26T04:14:03.581Z,4.65
2019-02-26T04:15:17.801Z,4.67
2019-02-26T04:16:41.146Z,4.6
2019-02-26T04:17:53.517Z,4.67
2019-02-26T04:19:05.843Z,4.57
2019-02-26T04:20:18.795Z,4.5
2019-02-26T04:21:32.510Z,4.59
2019-02-26T04:22:53.163Z,4.53
2019-02-26T04:24:11.401Z,4.47
2019-02-26T04:25:27.081Z,4.47
2019-02-26T04:26:41.872Z,4.56
2019-02-26T04:27:51.979Z,4.62
2019-02-26T04:29:07.782Z,4.57
2019-02-26T04:30:21.414Z,4.73
2019-02-26T04:31:31.505Z,4.7
2019-02-26T04:32:48.920Z,4.78
2019-02-26T04:34:05.165Z,4.8
2019-02-26T04:35:16.481Z,4.75
2019-02-26T04:36:27.288Z,4.73
2019-02-26T04:37:41.110Z,4.6
2019-02-26T04:38:55.715Z,4.56
2019-02-26T04:40:14.109Z,4.62
2019-02-26T04:41:24.431Z,4.5
2019-02-26T04:42:38.232Z,4.57
2019-02-26T04:43:58.233Z,4.49
2019-02-26T04:45:14.412Z,4.52
2019-02-26T04:46:25.426Z,4.53
2019-02-26T04:47:45.914Z,4.5
2019-02-26T04:49:02.931Z,4.55
2019-02-26T04:50:13.972Z,4.52
2019-02-26T04:51:31.441Z,4.52
2019-02-26T04:52:48.486Z,4.38
2019-02-26T04:54:04.590Z,4.34
2019-02-26T04:55:14.713Z,4.3
2019-02-26T04:56:24.814Z,4.28
2019-02-26T04:57:53.472Z,4.25
2019-02-26T04:59:09.291Z,4.27
2019-02-26T05:00:23.605Z,4.2
2019-02-26T05:01:46.105Z,4.12
2019-02-26T05:03:02.294Z,4.18
2019-02-26T05:04:18.968Z,4.18
2019-02-26T05:05:37.076Z,4.22
2019-02-26T05:06:47.374Z,4.23
2019-02-26T05:07:57.553Z,4.15
2019-02-26T05:09:13.345Z,4.18
2019-02-26T05:10:29.920Z,4.18
2019-02-26T05:11:45.567Z,4.19
2019-02-26T05:13:03.862Z,4.15
2019-02-26T05:14:25.819Z,4.11
2019-02-26T05:15:37.753Z,4.18
2019-02-26T05:16:49.102Z,4.08
2019-02-26T05:17:59.215Z,4.15
2019-02-26T05:19:10.530Z,4.15
2019-02-26T05:20:26.982Z,4.13
2019-02-26T05:21:42.875Z,4.05
2019-02-26T05:22:57.550Z,4.03
2019-02-26T05:24:12.951Z,4.03
2019-02-26T05:25:30.900Z,4.05
2019-02-26T05:26:45.837Z,3.98
2019-02-26T05:27:55.970Z,4.12
2019-02-26T05:29:06.065Z,3.98
2019-02-26T05:30:24.514Z,4
2019-02-26T05:31:40.718Z,4.01
2019-02-26T05:32:57.825Z,4.16
2019-02-26T05:34:17.959Z,4.2
2019-02-26T05:35:32.897Z,4.23
2019-02-26T05:36:51.147Z,4.2
2019-02-26T05:38:09.596Z,4.34
2019-02-26T05:39:26.655Z,4.36
2019-02-26T05:40:47.602Z,4.4
2019-02-26T05:42:08.186Z,4.37
2019-02-26T05:43:20.057Z,4.27
2019-02-26T05:44:34.178Z,4.28
2019-02-26T05:45:44.286Z,4.28
2019-02-26T05:47:04.234Z,4.18
2019-02-26T05:48:18.530Z,4.34
2019-02-26T05:49:38.354Z,4.27
2019-02-26T05:50:53.481Z,4.18
2019-02-26T05:52:12.110Z,4.18
2019-02-26T05:53:22.244Z,4.18
2019-02-26T05:54:32.361Z,4.22
2019-02-26T05:55:48.430Z,4.18
2019-02-26T05:57:09.018Z,4.22
2019-02-26T05:58:43.691Z,4.22
2019-02-26T05:59:54.858Z,4.12
2019-02-26T06:01:04.962Z,4.22
2019-02-26T06:02:21.631Z,4.15
2019-02-26T06:03:32.486Z,4.22
2019-02-26T06:04:49.050Z,4.13
2019-02-26T06:06:02.863Z,4.25
2019-02-26T06:07:13.006Z,4.18
2019-02-26T06:08:41.233Z,4.18
2019-02-26T06:09:59.072Z,4.12
2019-02-26T06:11:09.315Z,4.11
2019-02-26T06:12:22.381Z,4.03
2019-02-26T06:13:40.170Z,4.01
2019-02-26T06:14:51.526Z,3.97
2019-02-26T06:16:12.379Z,3.91
2019-02-26T06:17:25.053Z,3.97
2019-02-26T06:18:35.158Z,3.85
2019-02-26T06:19:51.415Z,3.87
2019-02-26T06:21:05.898Z,3.83
2019-02-26T06:22:27.069Z,3.87
2019-02-26T06:23:43.174Z,3.85
2019-02-26T06:24:59.671Z,3.8
2019-02-26T06:26:27.956Z,3.85
2019-02-26T06:27:43.568Z,3.82
2019-02-26T06:28:55.716Z,3.79
2019-02-26T06:30:14.540Z,3.8
2019-02-26T06:31:27.510Z,3.79
2019-02-26T06:32:44.632Z,3.75
2019-02-26T06:33:55.556Z,3.86
2019-02-26T06:35:19.430Z,3.83
2019-02-26T06:36:32.890Z,3.82
2019-02-26T06:37:45.227Z,3.83
2019-02-26T06:39:01.246Z,3.86
2019-02-26T06:40:13.832Z,3.91
2019-02-26T06:41:23.941Z,3.93
2019-02-26T06:42:40.335Z,4
2019-02-26T06:43:55.767Z,4.08
2019-02-26T06:45:08.906Z,3.98
2019-02-26T06:46:23.661Z,4.15
2019-02-26T06:47:38.725Z,4.01
2019-02-26T06:48:50.985Z,4.13
2019-02-26T06:50:02.822Z,4.16
2019-02-26T06:51:19.065Z,4.18
2019-02-26T06:52:44.692Z,4.12
2019-02-26T06:54:02.926Z,4.15
2019-02-26T06:55:13.029Z,4.12
2019-02-26T06:56:23.276Z,4.22
2019-02-26T06:57:35.578Z,4.23
2019-02-26T06:58:52.375Z,4.23
2019-02-26T07:00:06.708Z,4.18
2019-02-26T07:01:21.156Z,4.23
2019-02-26T07:02:33.571Z,4.16
2019-02-26T07:03:45.781Z,4.25
2019-02-26T07:04:55.891Z,4.25
2019-02-26T07:06:09.043Z,4.36
2019-02-26T07:07:19.475Z,4.46
2019-02-26T07:08:33.473Z,4.33
2019-02-26T07:09:46.389Z,4.38
2019-02-26T07:10:56.508Z,4.31
2019-02-26T07:12:06.619Z,4.43
2019-02-26T07:13:18.926Z,4.4
2019-02-26T07:14:34.558Z,4.46
2019-02-26T07:15:47.713Z,4.41
2019-02-26T07:17:01.330Z,4.4
2019-02-26T07:18:19.615Z,4.41
2019-02-26T07:19:35.741Z,4.41
2019-02-26T07:20:57.259Z,4.38
2019-02-26T07:22:13.468Z,4.59
2019-02-26T07:23:27.767Z,4.55
2019-02-26T07:24:49.663Z,4.65
2019-02-26T07:26:01.791Z,4.73
2019-02-26T07:27:16.271Z,4.85
2019-02-26T07:28:29.365Z,4.96
2019-02-26T07:29:49.739Z,5.22
2019-02-26T07:31:05.398Z,5.56
2019-02-26T07:32:24.604Z,6.31
2019-02-26T07:33:40.213Z,7.39
2019-02-26T07:34:54.595Z,8.4
2019-02-26T07:36:08.505Z,9.23
2019-02-26T07:37:20.666Z,9.99
2019-02-26T07:38:40.777Z,10.57
2019-02-26T07:39:56.833Z,11.28
2019-02-26T07:41:11.141Z,11.97
2019-02-26T07:42:23.634Z,12.48
2019-02-26T07:43:46.770Z,12.68
2019-02-26T07:45:01.794Z,13
2019-02-26T07:46:23.928Z,13.54
2019-02-26T07:47:38.691Z,13.92
2019-02-26T07:48:57.233Z,14.26
2019-02-26T07:50:17.544Z,14.74
2019-02-26T07:51:29.343Z,15.09
2019-02-26T07:52:47.131Z,15.48
2019-02-26T07:54:03.708Z,15.84
2019-02-26T07:55:19.646Z,15.95
2019-02-26T07:56:34.500Z,16.34
2019-02-26T07:59:10.455Z,16.46
2019-02-26T08:04:43.717Z,16.76
2019-02-26T08:05:53.844Z,16.71
2019-02-26T08:07:06.815Z,16.98
2019-02-26T08:08:21.418Z,16.96
2019-02-26T08:09:31.525Z,17.08
2019-02-26T08:10:48.709Z,17.09
2019-02-26T08:12:01.988Z,17.24
2019-02-26T08:13:19.058Z,17.47
2019-02-26T08:14:32.215Z,17.54
2019-02-26T08:15:45.168Z,17.58
2019-02-26T08:17:01.820Z,17.7
2019-02-26T08:18:13.838Z,17.83
2019-02-26T08:19:29.383Z,17.86
2019-02-26T08:20:43.302Z,18.01
2019-02-26T08:21:57.311Z,18.19
2019-02-26T08:23:07.511Z,18.37
2019-02-26T08:26:52.366Z,19.1
2019-02-26T08:28:05.601Z,19.21
2019-02-26T08:29:17.422Z,19.25
2019-02-26T08:30:31.072Z,19.35
2019-02-26T08:31:49.331Z,19.34
2019-02-26T08:33:09.814Z,19.46
2019-02-26T08:34:20.714Z,19.43
2019-02-26T08:35:30.622Z,19.58
2019-02-26T08:36:40.738Z,19.65
2019-02-26T08:37:57.126Z,19.71
2019-02-26T08:40:23.775Z,19.71
2019-02-26T08:41:33.939Z,19.78
2019-02-26T08:42:44.068Z,19.73
2019-02-26T08:43:58.958Z,19.9
2019-02-26T08:45:08.836Z,19.95
2019-02-26T08:46:23.619Z,20.08
2019-02-26T08:47:33.739Z,20.19
2019-02-26T08:48:50.740Z,20.34
2019-02-26T08:50:04.640Z,20.48
2019-02-26T08:51:23.986Z,20.39
2019-02-26T08:52:34.394Z,20.39
2019-02-26T08:53:47.646Z,20.36
2019-02-26T08:55:02.689Z,20.3
2019-02-26T08:56:18.751Z,20.38
2019-02-26T08:57:34.790Z,20.28
2019-02-26T08:58:48.102Z,20.27
2019-02-26T09:00:01.189Z,20.12
2019-02-26T09:01:12.732Z,20.2
2019-02-26T09:02:23.985Z,20.24
2019-02-26T09:03:43.170Z,20.24
2019-02-26T09:04:55.942Z,20.3
2019-02-26T09:06:18.838Z,20.46
2019-02-26T09:07:31.135Z,20.72
2019-02-26T09:08:45.610Z,20.73
2019-02-26T09:10:00.121Z,20.72
2019-02-26T09:11:16.535Z,20.76
2019-02-26T09:12:29.684Z,20.71
2019-02-26T09:13:44.267Z,20.85
2019-02-26T09:14:54.914Z,20.94
2019-02-26T09:16:10.012Z,20.91
2019-02-26T09:17:30.346Z,20.82
2019-02-26T09:18:47.357Z,20.73
2019-02-26T09:21:27.814Z,20.61
2019-02-26T09:22:47.799Z,20.53
2019-02-26T09:24:07.876Z,20.31
2019-02-26T09:25:20.359Z,20.24
2019-02-26T09:26:36.690Z,20.17
2019-02-26T09:27:47.973Z,20.07
2019-02-26T09:29:00.346Z,20.27
2019-02-26T09:30:16.102Z,20.28
2019-02-26T09:31:27.170Z,20.35
2019-02-26T09:32:44.713Z,20.34
2019-02-26T09:33:54.691Z,20.39
2019-02-26T09:35:08.916Z,20.45
2019-02-26T09:36:26.119Z,20.39
2019-02-26T09:37:38.289Z,20.51
2019-02-26T09:38:53.921Z,20.68
2019-02-26T09:40:07.338Z,20.76
2019-02-26T09:41:21.859Z,20.78
2019-02-26T09:42:34.914Z,20.6
2019-02-26T09:43:48.264Z,20.49
2019-02-26T09:45:02.658Z,20.54
2019-02-26T09:46:19.246Z,20.83
2019-02-26T09:47:35.651Z,21.23
2019-02-26T09:48:48.587Z,21.75
2019-02-26T09:50:00.917Z,22.18
2019-02-26T09:51:16.780Z,22.46
2019-02-26T09:52:33.235Z,22.42
2019-02-26T09:53:43.363Z,22.64
2019-02-26T09:54:58.224Z,23.14
2019-02-26T09:56:08.369Z,23.25
2019-02-26T09:57:26.261Z,23.32
2019-02-26T09:58:41.164Z,23.5
2019-02-26T10:00:02.912Z,23.73
2019-02-26T10:01:17.994Z,23.9
2019-02-26T10:02:31.237Z,23.91
2019-02-26T10:03:43.987Z,24.12
2019-02-26T10:04:56.834Z,24.1
2019-02-26T10:06:06.737Z,24.02
2019-02-26T10:07:21.075Z,23.7
2019-02-26T10:08:35.484Z,23.65
2019-02-26T10:09:50.973Z,23.77
2019-02-26T10:11:05.145Z,24.07
2019-02-26T10:12:18.293Z,24.05
2019-02-26T10:13:30.543Z,23.91
2019-02-26T10:14:43.239Z,24.05
2019-02-26T10:16:01.902Z,24.13
2019-02-26T10:17:21.495Z,23.77
2019-02-26T10:18:35.449Z,23.77
2019-02-26T10:19:47.852Z,23.7
2019-02-26T10:21:00.391Z,23.6
2019-02-26T10:22:17.596Z,23.58
2019-02-26T10:23:32.957Z,23.54
2019-02-26T10:24:45.434Z,23.24
2019-02-26T10:26:05.175Z,22.99
2019-02-26T10:27:19.161Z,22.98
2019-02-26T10:28:30.100Z,22.86
2019-02-26T10:29:52.335Z,22.73
2019-02-26T10:31:11.685Z,22.63
2019-02-26T10:32:21.839Z,22.71
2019-02-26T10:33:43.153Z,22.86
2019-02-26T10:34:56.313Z,22.96
2019-02-26T10:36:14.954Z,23.02
2019-02-26T10:37:26.264Z,23.18
2019-02-26T10:38:43.412Z,23.36
2019-02-26T10:39:57.620Z,23.54
2019-02-26T10:41:09.920Z,23.42
2019-02-26T10:42:23.366Z,23.36
2019-02-26T10:43:33.862Z,23.32
2019-02-26T10:44:47.556Z,23.16
2019-02-26T10:45:59.760Z,23.23
2019-02-26T10:47:13.154Z,23.32
2019-02-26T10:48:28.176Z,23.32
2019-02-26T10:49:38.302Z,23.25
2019-02-26T10:50:54.543Z,23.16
2019-02-26T10:52:04.775Z,23.03
2019-02-26T10:53:25.038Z,23.32
2019-02-26T10:54:44.716Z,23.58
2019-02-26T10:55:56.611Z,23.72
2019-02-26T10:57:16.494Z,23.92
2019-02-26T10:58:26.642Z,24.13
2019-02-26T10:59:37.423Z,24.38
2019-02-26T11:00:55.558Z,24.34
2019-02-26T11:02:10.714Z,24.28
2019-02-26T11:03:29.680Z,24.19
2019-02-26T11:04:55.475Z,24.34
2019-02-26T11:06:10.578Z,24.48
2019-02-26T11:07:31.700Z,24.76
2019-02-26T11:08:47.433Z,24.66
2019-02-26T11:10:03.856Z,24.38
2019-02-26T11:11:19.259Z,24.29
2019-02-26T11:12:36.221Z,24.35
2019-02-26T11:13:53.880Z,24.35
2019-02-26T11:15:09.353Z,24.38
2019-02-26T11:16:33.000Z,24.55
2019-02-26T11:17:51.137Z,24.58
2019-02-26T11:19:07.570Z,24.62
2019-02-26T11:20:25.053Z,24.81
2019-02-26T11:21:39.816Z,24.84
2019-02-26T11:22:54.289Z,25.07
2019-02-26T11:24:12.073Z,25.09
2019-02-26T11:25:27.540Z,25.02
2019-02-26T11:26:43.860Z,25.02
2019-02-26T11:27:53.819Z,24.87
2019-02-26T11:29:07.742Z,24.75
2019-02-26T11:30:23.013Z,24.7
2019-02-26T11:31:41.667Z,24.45
2019-02-26T11:33:02.477Z,24.47
2019-02-26T11:34:20.505Z,24.44
2019-02-26T11:35:33.036Z,24.4
2019-02-26T11:36:46.491Z,24.39
2019-02-26T11:38:01.905Z,24.32
2019-02-26T11:39:16.420Z,24.44
2019-02-26T11:40:32.107Z,24.5
2019-02-26T11:41:42.260Z,24.58
2019-02-26T11:42:56.301Z,24.44
2019-02-26T11:44:25.718Z,24.39
2019-02-26T11:45:44.416Z,23.98
2019-02-26T11:46:58.740Z,23.75
2019-02-26T11:48:11.389Z,23.68
2019-02-26T11:49:24.689Z,23.72
2019-02-26T11:50:36.804Z,23.58
2019-02-26T11:51:49.914Z,23.55
2019-02-26T11:53:00.124Z,23.5
2019-02-26T11:54:17.112Z,23.43
2019-02-26T11:55:35.011Z,23.25
2019-02-26T11:56:52.580Z,23.24
2019-02-26T11:58:10.694Z,23.06
2019-02-26T11:59:27.222Z,22.87
2019-02-26T12:00:50.730Z,22.86
2019-02-26T12:02:06.610Z,22.71
2019-02-26T12:03:18.150Z,22.63
2019-02-26T12:05:13.266Z,22.43
2019-02-26T12:06:24.013Z,22.35
2019-02-26T12:07:37.364Z,22.24
2019-02-26T12:08:52.458Z,22.21
2019-02-26T12:10:12.718Z,22.06
2019-02-26T12:11:25.885Z,22.23
2019-02-26T12:12:39.418Z,22.27
2019-02-26T12:13:53.198Z,22.24
2019-02-26T12:15:07.333Z,22.24
2019-02-26T12:16:20.709Z,22.28
2019-02-26T12:17:33.855Z,22.31
2019-02-26T12:18:49.236Z,22.26
2019-02-26T12:20:02.860Z,22.4
2019-02-26T12:21:15.784Z,22.33
2019-02-26T12:22:31.770Z,22.27
2019-02-26T12:23:46.955Z,22.4
2019-02-26T12:25:05.610Z,22.31
2019-02-26T12:26:25.446Z,22.24
2019-02-26T12:27:43.798Z,22.18
2019-02-26T12:29:01.846Z,22.23
2019-02-26T12:30:18.087Z,22.34
2019-02-26T12:31:38.772Z,22.64
2019-02-26T12:32:55.191Z,22.64
2019-02-26T12:34:05.589Z,22.76
2019-02-26T12:35:22.914Z,22.79
2019-02-26T12:36:38.235Z,23.05
2019-02-26T12:37:52.340Z,23.14
2019-02-26T12:39:28.841Z,23.16
2019-02-26T12:40:47.085Z,23.31
2019-02-26T12:42:01.205Z,23.23
2019-02-26T12:43:20.234Z,23.08
